createdAt,value
2018-02-10T00:00:09.157Z,91.43
2018-02-10T00:01:09.139Z,91.62
2018-02-10T00:02:09.126Z,91.72
2018-02-10T00:03:09.364Z,91.43
2018-02-10T00:04:09.352Z,91.53
2018-02-10T00:05:09.079Z,91.53
2018-02-10T00:06:09.314Z,91.24
2018-02-10T00:07:09.301Z,91.24
2018-02-10T00:08:09.036Z,91.24
2018-02-10T00:09:09.015Z,91.24
2018-02-10T00:10:09.250Z,91.34
2018-02-10T00:11:09.246Z,91.43
2018-02-10T00:12:09.218Z,91.34
2018-02-10T00:13:09.205Z,91.72
2018-02-10T00:14:09.189Z,91.24
2018-02-10T00:15:09.179Z,91.34
2018-02-10T00:16:08.904Z,91.43
2018-02-10T00:17:09.144Z,91.43
2018-02-10T00:18:09.130Z,91.62
2018-02-10T00:19:09.114Z,91.62
2018-02-10T00:20:08.842Z,91.62
2018-02-10T00:21:09.081Z,91.91
2018-02-10T00:22:09.078Z,91.53
2018-02-10T00:23:08.795Z,91.34
2018-02-10T00:24:09.036Z,91.53
2018-02-10T00:25:08.766Z,91.53
2018-02-10T00:26:09.003Z,91.72
2018-02-10T00:27:08.989Z,91.62
2018-02-10T00:28:08.974Z,91.62
2018-02-10T00:29:08.706Z,91.34
2018-02-10T00:30:08.941Z,91.81
2018-02-10T00:31:08.922Z,91.53
2018-02-10T00:32:08.910Z,91.91
2018-02-10T00:33:08.893Z,91.43
2018-02-10T00:34:08.884Z,91.53
2018-02-10T00:35:08.862Z,91.81
2018-02-10T00:36:08.847Z,91.62
2018-02-10T00:37:08.839Z,91.81
2018-02-10T00:38:08.821Z,91.53
2018-02-10T00:39:08.805Z,91.81
2018-02-10T00:40:08.532Z,91.43
2018-02-10T00:41:08.773Z,91.62
2018-02-10T00:42:08.503Z,91.43
2018-02-10T00:43:08.739Z,91.72
2018-02-10T00:44:08.725Z,91.43
2018-02-10T00:45:08.708Z,91.72
2018-02-10T00:46:08.697Z,91.62
2018-02-10T00:47:08.427Z,91.43
2018-02-10T00:48:08.662Z,91.62
2018-02-10T00:49:08.392Z,91.81
2018-02-10T00:50:08.635Z,91.62
2018-02-10T00:51:08.626Z,91.72
2018-02-10T00:52:08.353Z,91.53
2018-02-10T00:53:08.331Z,91.53
2018-02-10T00:54:08.570Z,91.81
2018-02-10T00:55:08.302Z,92.38
2018-02-10T00:56:08.284Z,91.91
2018-02-10T00:57:08.526Z,91.72
2018-02-10T00:58:08.257Z,91.72
2018-02-10T00:59:08.492Z,91.91
2018-02-10T01:00:08.223Z,92.1
2018-02-10T01:01:08.461Z,92.19
2018-02-10T01:02:08.191Z,92.47
2018-02-10T01:03:08.433Z,92.1
2018-02-10T01:04:08.415Z,91.72
2018-02-10T01:05:08.399Z,92.19
2018-02-10T01:06:08.136Z,92.38
2018-02-10T01:07:08.370Z,92.29
2018-02-10T01:08:08.351Z,92.94
2018-02-10T01:09:08.339Z,92.94
2018-02-10T01:10:08.324Z,92.85
2018-02-10T01:11:08.305Z,92.76
2018-02-10T01:12:08.293Z,92.85
2018-02-10T01:13:08.023Z,92.94
2018-02-10T01:14:08.261Z,92.29
2018-02-10T01:15:08.243Z,92.57
2018-02-10T01:16:08.229Z,92.47
2018-02-10T01:17:08.216Z,92.29
2018-02-10T01:18:07.947Z,92.38
2018-02-10T01:19:08.182Z,92.29
2018-02-10T01:20:07.914Z,92.38
2018-02-10T01:21:07.899Z,92.57
2018-02-10T01:22:08.142Z,92.76
2018-02-10T01:23:08.119Z,92.29
2018-02-10T01:24:08.106Z,92.38
2018-02-10T01:25:08.090Z,92.29
2018-02-10T01:26:07.823Z,92.38
2018-02-10T01:27:07.806Z,92.94
2018-02-10T01:28:08.043Z,92.76
2018-02-10T01:29:08.024Z,93.04
2018-02-10T01:30:07.759Z,93.04
2018-02-10T01:31:07.998Z,92.94
2018-02-10T01:32:07.726Z,92.94
2018-02-10T01:33:07.962Z,92.94
2018-02-10T01:34:07.955Z,92.94
2018-02-10T01:35:07.937Z,92.66
2018-02-10T01:36:07.915Z,92.85
2018-02-10T01:37:07.903Z,92.57
2018-02-10T01:38:07.900Z,92.94
2018-02-10T01:39:07.871Z,92.66
2018-02-10T01:40:07.856Z,92.94
2018-02-10T01:41:07.843Z,92.76
2018-02-10T01:42:07.571Z,92.76
2018-02-10T01:43:07.807Z,92.85
2018-02-10T01:44:07.792Z,93.13
2018-02-10T01:45:07.782Z,93.04
2018-02-10T01:46:07.760Z,92.66
2018-02-10T01:47:07.748Z,92.76
2018-02-10T01:48:07.736Z,92.94
2018-02-10T01:49:07.464Z,92.76
2018-02-10T01:50:07.449Z,92.76
2018-02-10T01:51:07.684Z,92.66
2018-02-10T01:52:07.670Z,92.85
2018-02-10T01:53:07.654Z,92.76
2018-02-10T01:54:07.893Z,92.85
2018-02-10T01:55:07.628Z,92.76
2018-02-10T01:56:07.609Z,92.57
2018-02-10T01:57:07.591Z,92.85
2018-02-10T01:58:07.579Z,92.76
2018-02-10T01:59:07.306Z,93.23
2018-02-10T02:00:07.542Z,93.04
2018-02-10T02:01:07.589Z,93.13
2018-02-10T02:02:07.513Z,93.04
2018-02-10T02:03:07.503Z,93.04
2018-02-10T02:04:07.483Z,93.04
2018-02-10T02:05:07.465Z,93.04
2018-02-10T02:06:07.197Z,93.04
2018-02-10T02:07:07.434Z,92.94
2018-02-10T02:08:07.417Z,93.04
2018-02-10T02:09:07.413Z,93.04
2018-02-10T02:10:07.134Z,92.76
2018-02-10T02:11:07.119Z,92.66
2018-02-10T02:12:07.357Z,93.04
2018-02-10T02:13:07.340Z,93.7
2018-02-10T02:14:07.330Z,93.61
2018-02-10T02:15:07.311Z,93.61
2018-02-10T02:16:07.040Z,93.42
2018-02-10T02:17:07.279Z,93.61
2018-02-10T02:18:07.260Z,93.13
2018-02-10T02:19:07.249Z,93.61
2018-02-10T02:20:07.266Z,93.61
2018-02-10T02:21:06.962Z,93.61
2018-02-10T02:22:06.946Z,93.8
2018-02-10T02:23:06.931Z,92.76
2018-02-10T02:24:06.918Z,92.94
2018-02-10T02:25:07.403Z,93.04
2018-02-10T02:26:07.146Z,92.94
2018-02-10T02:27:07.121Z,92.85
2018-02-10T02:28:07.109Z,92.85
2018-02-10T02:29:06.838Z,93.51
2018-02-10T02:30:07.079Z,93.8
2018-02-10T02:31:06.808Z,93.7
2018-02-10T02:32:07.053Z,93.8
2018-02-10T02:33:07.030Z,93.51
2018-02-10T02:34:07.013Z,93.51
2018-02-10T02:35:06.744Z,93.61
2018-02-10T02:36:06.727Z,93.8
2018-02-10T02:37:07.001Z,93.8
2018-02-10T02:38:06.952Z,93.42
2018-02-10T02:39:06.936Z,93.99
2018-02-10T02:40:06.922Z,93.8
2018-02-10T02:41:06.911Z,93.51
2018-02-10T02:42:06.887Z,93.61
2018-02-10T02:43:06.875Z,93.51
2018-02-10T02:44:06.857Z,93.7
2018-02-10T02:45:06.849Z,93.42
2018-02-10T02:46:06.574Z,93.51
2018-02-10T02:47:06.817Z,93.7
2018-02-10T02:48:06.797Z,93.61
2018-02-10T02:49:06.783Z,94.18
2018-02-10T02:50:06.518Z,93.89
2018-02-10T02:51:06.748Z,94.27
2018-02-10T02:52:06.741Z,94.46
2018-02-10T02:53:06.716Z,94.56
2018-02-10T02:54:06.712Z,93.89
2018-02-10T02:55:06.686Z,93.8
2018-02-10T02:56:06.670Z,94.37
2018-02-10T02:57:06.662Z,94.08
2018-02-10T02:58:06.641Z,93.99
2018-02-10T02:59:06.625Z,94.18
2018-02-10T03:00:06.605Z,94.18
2018-02-10T03:01:06.590Z,94.27
2018-02-10T03:02:06.578Z,94.18
2018-02-10T03:03:06.562Z,94.08
2018-02-10T03:04:06.545Z,94.27
2018-02-10T03:05:06.528Z,94.84
2018-02-10T03:06:06.512Z,94.74
2018-02-10T03:07:06.244Z,94.74
2018-02-10T03:08:06.479Z,95.03
2018-02-10T03:09:06.211Z,94.51
2018-02-10T03:10:06.196Z,94.84
2018-02-10T03:11:06.180Z,94.65
2018-02-10T03:12:06.165Z,94.84
2018-02-10T03:13:06.401Z,94.46
2018-02-10T03:14:06.383Z,94.65
2018-02-10T03:15:06.372Z,95.21
2018-02-10T03:16:06.352Z,95.12
2018-02-10T03:17:06.088Z,94.65
2018-02-10T03:18:06.321Z,94.84
2018-02-10T03:19:06.304Z,94.93
2018-02-10T03:20:06.036Z,94.56
2018-02-10T03:21:06.274Z,94.84
2018-02-10T03:22:06.256Z,94.89
2018-02-10T03:23:06.244Z,94.84
2018-02-10T03:24:06.228Z,94.84
2018-02-10T03:25:06.210Z,94.79
2018-02-10T03:26:06.196Z,94.56
2018-02-10T03:27:06.190Z,94.51
2018-02-10T03:28:06.168Z,94.46
2018-02-10T03:29:06.145Z,95.21
2018-02-10T03:30:06.134Z,94.74
2018-02-10T03:31:06.128Z,95.31
2018-02-10T03:32:06.102Z,95.26
2018-02-10T03:33:06.083Z,94.51
2018-02-10T03:34:05.812Z,95.17
2018-02-10T03:35:06.054Z,95.07
2018-02-10T03:36:06.041Z,94.89
2018-02-10T03:37:05.769Z,95.17
2018-02-10T03:38:06.006Z,94.98
2018-02-10T03:39:05.989Z,94.98
2018-02-10T03:40:05.972Z,94.98
2018-02-10T03:41:05.954Z,95.26
2018-02-10T03:42:05.687Z,95.36
2018-02-10T03:43:05.673Z,95.45
2018-02-10T03:44:05.909Z,95.07
2018-02-10T03:45:05.638Z,95.36
2018-02-10T03:46:05.624Z,95.07
2018-02-10T03:47:05.610Z,95.36
2018-02-10T03:48:05.845Z,95.07
2018-02-10T03:49:05.576Z,95.45
2018-02-10T03:50:05.559Z,95.17
2018-02-10T03:51:05.800Z,95.55
2018-02-10T03:52:05.784Z,95.55
2018-02-10T03:53:05.772Z,95.64
2018-02-10T03:54:05.749Z,95.36
2018-02-10T03:55:05.489Z,95.45
2018-02-10T03:56:05.720Z,95.5
2018-02-10T03:57:05.703Z,94.98
2018-02-10T03:58:05.686Z,95.07
2018-02-10T03:59:05.669Z,95.07
2018-02-10T04:00:05.406Z,95.07
2018-02-10T04:01:05.637Z,94.98
2018-02-10T04:02:05.370Z,95.55
2018-02-10T04:03:05.605Z,95.17
2018-02-10T04:04:05.337Z,95.64
2018-02-10T04:05:05.575Z,95.74
2018-02-10T04:06:05.564Z,95.26
2018-02-10T04:07:05.543Z,96.02
2018-02-10T04:08:05.526Z,95.26
2018-02-10T04:09:05.258Z,95.45
2018-02-10T04:10:05.491Z,96.02
2018-02-10T04:11:05.479Z,95.64
2018-02-10T04:12:05.461Z,95.64
2018-02-10T04:13:05.197Z,95.93
2018-02-10T04:14:05.433Z,95.93
2018-02-10T04:15:05.163Z,95.93
2018-02-10T04:16:05.402Z,95.83
2018-02-10T04:17:05.383Z,95.83
2018-02-10T04:18:05.114Z,96.12
2018-02-10T04:19:05.353Z,95.83
2018-02-10T04:20:05.336Z,95.64
2018-02-10T04:21:05.325Z,96.5
2018-02-10T04:22:05.305Z,96.4
2018-02-10T04:23:05.288Z,96.69
2018-02-10T04:24:05.276Z,95.93
2018-02-10T04:25:05.004Z,96.02
2018-02-10T04:26:05.239Z,95.83
2018-02-10T04:27:05.225Z,95.93
2018-02-10T04:28:04.955Z,95.83
2018-02-10T04:29:05.192Z,96.5
2018-02-10T04:30:05.172Z,95.93
2018-02-10T04:31:05.161Z,96.12
2018-02-10T04:32:05.142Z,96.02
2018-02-10T04:33:05.128Z,96.31
2018-02-10T04:34:05.111Z,96.31
2018-02-10T04:35:04.843Z,96.12
2018-02-10T04:36:04.828Z,96.5
2018-02-10T04:37:05.068Z,96.4
2018-02-10T04:38:05.048Z,95.45
2018-02-10T04:39:05.036Z,96.69
2018-02-10T04:40:05.013Z,96.12
2018-02-10T04:41:04.999Z,96.12
2018-02-10T04:42:04.982Z,96.5
2018-02-10T04:43:04.972Z,96.5
2018-02-10T04:44:04.698Z,96.5
2018-02-10T04:45:04.940Z,96.5
2018-02-10T04:46:04.920Z,95.93
2018-02-10T04:47:04.902Z,96.12
2018-02-10T04:48:04.888Z,96.02
2018-02-10T04:49:04.874Z,95.93
2018-02-10T04:50:04.854Z,95.93
2018-02-10T04:51:04.587Z,95.83
2018-02-10T04:52:04.569Z,95.83
2018-02-10T04:53:04.808Z,96.07
2018-02-10T04:54:04.538Z,95.93
2018-02-10T04:55:04.524Z,96.26
2018-02-10T04:56:04.508Z,95.97
2018-02-10T04:57:04.747Z,95.78
2018-02-10T04:58:04.475Z,95.88
2018-02-10T04:59:04.718Z,95.74
2018-02-10T05:00:04.710Z,95.88
2018-02-10T05:01:04.930Z,96.26
2018-02-10T05:02:04.665Z,95.88
2018-02-10T05:03:04.648Z,95.88
2018-02-10T05:04:04.639Z,95.78
2018-02-10T05:05:04.621Z,95.78
2018-02-10T05:06:04.901Z,95.88
2018-02-10T05:07:04.596Z,96.07
2018-02-10T05:08:04.315Z,95.69
2018-02-10T05:09:04.553Z,96.07
2018-02-10T05:10:04.540Z,95.4
2018-02-10T05:11:04.522Z,95.5
2018-02-10T05:12:04.507Z,95.5
2018-02-10T05:13:04.236Z,95.5
2018-02-10T05:14:04.475Z,95.78
2018-02-10T05:15:04.461Z,95.5
2018-02-10T05:16:04.444Z,95.59
2018-02-10T05:17:04.429Z,95.69
2018-02-10T05:18:04.413Z,95.69
2018-02-10T05:19:04.396Z,95.59
2018-02-10T05:20:04.379Z,95.4
2018-02-10T05:21:04.367Z,95.59
2018-02-10T05:22:04.346Z,95.31
2018-02-10T05:23:04.333Z,95.4
2018-02-10T05:24:04.315Z,95.59
2018-02-10T05:25:04.309Z,94.84
2018-02-10T05:26:04.284Z,95.03
2018-02-10T05:27:04.268Z,95.12
2018-02-10T05:28:04.256Z,95.69
2018-02-10T05:29:04.239Z,95.21
2018-02-10T05:30:04.222Z,94.93
2018-02-10T05:31:04.204Z,95.03
2018-02-10T05:32:04.187Z,95.12
2018-02-10T05:33:04.181Z,94.84
2018-02-10T05:34:04.160Z,95.4
2018-02-10T05:35:04.144Z,95.31
2018-02-10T05:36:04.134Z,95.4
2018-02-10T05:37:04.112Z,95.4
2018-02-10T05:38:04.099Z,95.59
2018-02-10T05:39:04.095Z,95.5
2018-02-10T05:40:04.075Z,95.4
2018-02-10T05:41:04.065Z,95.03
2018-02-10T05:42:03.779Z,94.84
2018-02-10T05:43:04.019Z,94.93
2018-02-10T05:44:04.029Z,94.93
2018-02-10T05:45:03.993Z,94.84
2018-02-10T05:46:03.970Z,95.12
2018-02-10T05:47:03.955Z,94.84
2018-02-10T05:48:03.942Z,94.93
2018-02-10T05:49:03.937Z,95.12
2018-02-10T05:50:03.657Z,95.03
2018-02-10T05:51:03.906Z,94.93
2018-02-10T05:52:03.880Z,95.03
2018-02-10T05:53:03.862Z,94.93
2018-02-10T05:54:03.852Z,95.21
2018-02-10T05:55:03.834Z,95.21
2018-02-10T05:56:03.814Z,94.93
2018-02-10T05:57:03.798Z,95.03
2018-02-10T05:58:03.787Z,95.69
2018-02-10T05:59:03.767Z,95.59
2018-02-10T06:00:03.755Z,95.59
2018-02-10T06:01:03.747Z,95.03
2018-02-10T06:02:03.725Z,95.12
2018-02-10T06:03:03.704Z,95.03
2018-02-10T06:04:03.703Z,95.69
2018-02-10T06:05:03.679Z,95.4
2018-02-10T06:06:03.660Z,95.5
2018-02-10T06:07:03.392Z,95.4
2018-02-10T06:08:03.630Z,95.78
2018-02-10T06:09:03.614Z,95.59
2018-02-10T06:10:03.344Z,95.5
2018-02-10T06:11:03.579Z,95.5
2018-02-10T06:12:03.566Z,95.31
2018-02-10T06:13:03.551Z,95.4
2018-02-10T06:14:03.534Z,95.31
2018-02-10T06:15:03.522Z,95.59
2018-02-10T06:16:03.504Z,95.59
2018-02-10T06:17:03.236Z,95.78
2018-02-10T06:18:03.471Z,95.12
2018-02-10T06:19:03.204Z,95.4
2018-02-10T06:20:03.440Z,95.69
2018-02-10T06:21:03.423Z,95.12
2018-02-10T06:22:03.406Z,95.03
2018-02-10T06:23:03.142Z,94.65
2018-02-10T06:24:03.379Z,94.56
2018-02-10T06:25:03.363Z,94.56
2018-02-10T06:26:03.092Z,95.31
2018-02-10T06:27:03.342Z,95.31
2018-02-10T06:28:03.317Z,94.74
2018-02-10T06:29:03.303Z,94.65
2018-02-10T06:30:03.292Z,94.56
2018-02-10T06:31:03.271Z,94.56
2018-02-10T06:32:03.253Z,94.65
2018-02-10T06:33:03.237Z,94.84
2018-02-10T06:34:03.305Z,94.74
2018-02-10T06:35:03.206Z,94.56
2018-02-10T06:36:02.938Z,94.74
2018-02-10T06:37:03.180Z,94.84
2018-02-10T06:38:03.164Z,94.27
2018-02-10T06:39:03.143Z,94.84
2018-02-10T06:40:03.128Z,94.65
2018-02-10T06:41:03.110Z,94.93
2018-02-10T06:42:03.104Z,94.56
2018-02-10T06:43:03.079Z,94.84
2018-02-10T06:44:03.064Z,94.27
2018-02-10T06:45:03.049Z,94.74
2018-02-10T06:46:03.045Z,95.12
2018-02-10T06:47:03.022Z,94.74
2018-02-10T06:48:03.004Z,94.74
2018-02-10T06:49:02.988Z,94.84
2018-02-10T06:50:02.719Z,95.12
2018-02-10T06:51:02.704Z,94.27
2018-02-10T06:52:02.940Z,95.03
2018-02-10T06:53:02.926Z,94.93
2018-02-10T06:54:02.912Z,94.65
2018-02-10T06:55:02.640Z,94.93
2018-02-10T06:56:02.625Z,95.03
2018-02-10T06:57:02.863Z,95.12
2018-02-10T06:58:02.846Z,94.93
2018-02-10T06:59:03.084Z,94.84
2018-02-10T07:00:02.816Z,94.84
2018-02-10T07:01:02.813Z,94.84
2018-02-10T07:02:02.786Z,94.65
2018-02-10T07:03:02.519Z,94.84
2018-02-10T07:04:02.503Z,95.12
2018-02-10T07:05:02.742Z,95.12
2018-02-10T07:06:02.722Z,95.03
2018-02-10T07:07:02.717Z,94.37
2018-02-10T07:08:02.440Z,95.12
2018-02-10T07:09:02.680Z,94.08
2018-02-10T07:10:02.663Z,94.18
2018-02-10T07:11:02.649Z,94.08
2018-02-10T07:12:02.377Z,94.18
2018-02-10T07:13:02.363Z,94.56
2018-02-10T07:14:02.603Z,94.37
2018-02-10T07:15:02.588Z,94.37
2018-02-10T07:16:02.316Z,94.27
2018-02-10T07:17:02.555Z,94.18
2018-02-10T07:18:02.538Z,93.89
2018-02-10T07:19:02.275Z,93.61
2018-02-10T07:20:02.510Z,93.8
2018-02-10T07:21:02.490Z,93.46
2018-02-10T07:22:02.476Z,93.42
2018-02-10T07:23:02.462Z,93.42
2018-02-10T07:24:02.455Z,93.8
2018-02-10T07:25:02.433Z,93.46
2018-02-10T07:26:02.419Z,93.65
2018-02-10T07:27:02.406Z,93.89
2018-02-10T07:28:02.393Z,93.94
2018-02-10T07:29:02.379Z,93.84
2018-02-10T07:30:02.357Z,93.46
2018-02-10T07:31:02.339Z,93.65
2018-02-10T07:32:02.331Z,93.65
2018-02-10T07:33:02.308Z,93.84
2018-02-10T07:34:02.293Z,92.99
2018-02-10T07:35:02.284Z,93.18
2018-02-10T07:36:02.264Z,93.18
2018-02-10T07:37:02.249Z,92.52
2018-02-10T07:38:02.236Z,92.61
2018-02-10T07:39:02.222Z,92.9
2018-02-10T07:40:02.203Z,92.8
2018-02-10T07:41:02.197Z,92.9
2018-02-10T07:42:02.172Z,92.9
2018-02-10T07:43:01.904Z,92.71
2018-02-10T07:44:01.892Z,92.33
2018-02-10T07:45:01.877Z,92.43
2018-02-10T07:46:02.114Z,92.61
2018-02-10T07:47:02.100Z,91.95
2018-02-10T07:48:02.086Z,92.14
2018-02-10T07:49:01.817Z,92.14
2018-02-10T07:50:01.809Z,92.52
2018-02-10T07:51:01.790Z,91.57
2018-02-10T07:52:02.022Z,91.57
2018-02-10T07:53:02.094Z,91.76
2018-02-10T07:54:01.991Z,91.76
2018-02-10T07:55:01.983Z,91.76
2018-02-10T07:56:01.713Z,91.38
2018-02-10T07:57:01.952Z,91.81
2018-02-10T07:58:01.934Z,91.86
2018-02-10T07:59:01.917Z,91.1
2018-02-10T08:00:01.903Z,91.38
2018-02-10T08:01:01.638Z,91.14
2018-02-10T08:02:01.621Z,91.24
2018-02-10T08:03:01.861Z,90.86
2018-02-10T08:04:01.851Z,91.33
2018-02-10T08:05:01.837Z,91.43
2018-02-10T08:06:01.564Z,90.95
2018-02-10T08:07:01.802Z,90.86
2018-02-10T08:08:01.789Z,90.77
2018-02-10T08:09:01.771Z,90.58
2018-02-10T08:10:01.757Z,91.24
2018-02-10T08:11:01.742Z,90.58
2018-02-10T08:12:01.760Z,90.95
2018-02-10T08:13:01.460Z,90.58
2018-02-10T08:14:01.446Z,90.48
2018-02-10T08:15:01.685Z,90.77
2018-02-10T08:16:01.671Z,90.48
2018-02-10T08:17:01.657Z,90.48
2018-02-10T08:18:01.640Z,90.77
2018-02-10T08:19:01.370Z,90.39
2018-02-10T08:20:01.612Z,90.58
2018-02-10T08:21:01.344Z,90.39
2018-02-10T08:22:01.584Z,90.39
2018-02-10T08:23:01.313Z,90.29
2018-02-10T08:24:01.555Z,90.39
2018-02-10T08:25:01.304Z,90.48
2018-02-10T08:26:01.538Z,90.39
2018-02-10T08:27:01.507Z,89.72
2018-02-10T08:28:01.503Z,90.01
2018-02-10T08:29:01.227Z,89.91
2018-02-10T08:30:01.464Z,90.01
2018-02-10T08:31:01.497Z,89.82
2018-02-10T08:32:01.440Z,89.53
2018-02-10T08:33:01.423Z,89.53
2018-02-10T08:34:01.154Z,89.63
2018-02-10T08:35:01.392Z,89.91
2018-02-10T08:36:01.382Z,89.82
2018-02-10T08:37:01.367Z,89.72
2018-02-10T08:38:01.358Z,89.82
2018-02-10T08:39:01.333Z,89.53
2018-02-10T08:40:01.322Z,89.53
2018-02-10T08:41:01.325Z,89.53
2018-02-10T08:42:01.290Z,89.53
2018-02-10T08:43:01.277Z,89.82
2018-02-10T08:44:01.263Z,89.53
2018-02-10T08:45:01.253Z,89.44
2018-02-10T08:46:01.242Z,89.34
2018-02-10T08:47:01.221Z,89.72
2018-02-10T08:48:01.204Z,89.53
2018-02-10T08:49:01.189Z,89.82
2018-02-10T08:50:01.179Z,90.29
2018-02-10T08:51:00.917Z,89.63
2018-02-10T08:52:01.146Z,89.44
2018-02-10T08:53:00.879Z,89.63
2018-02-10T08:54:01.118Z,89.63
2018-02-10T08:55:00.853Z,89.44
2018-02-10T08:56:01.089Z,89.25
2018-02-10T08:57:01.081Z,89.44
2018-02-10T08:58:00.811Z,89.72
2018-02-10T08:59:00.796Z,89.82
2018-02-10T09:00:01.033Z,89.91
2018-02-10T09:01:00.769Z,89.63
2018-02-10T09:02:00.761Z,89.82
2018-02-10T09:03:00.994Z,89.53
2018-02-10T09:04:00.723Z,89.34
2018-02-10T09:05:00.964Z,89.34
2018-02-10T09:06:00.949Z,89.63
2018-02-10T09:07:00.941Z,89.91
2018-02-10T09:08:00.921Z,89.91
2018-02-10T09:09:00.903Z,89.82
2018-02-10T09:10:00.977Z,89.91
2018-02-10T09:11:00.628Z,90.01
2018-02-10T09:12:00.611Z,90.01
2018-02-10T09:13:00.850Z,90.2
2018-02-10T09:14:00.834Z,90.2
2018-02-10T09:15:00.596Z,90.01
2018-02-10T09:16:00.554Z,89.72
2018-02-10T09:17:00.538Z,89.82
2018-02-10T09:18:00.777Z,90.01
2018-02-10T09:19:00.762Z,90.29
2018-02-10T09:20:00.749Z,90.01
2018-02-10T09:21:00.742Z,89.63
2018-02-10T09:22:00.467Z,89.91
2018-02-10T09:23:00.710Z,90.01
2018-02-10T09:24:00.692Z,89.91
2018-02-10T09:25:00.430Z,90.1
2018-02-10T09:26:00.667Z,90.39
2018-02-10T09:27:00.653Z,90.29
2018-02-10T09:28:00.383Z,90.39
2018-02-10T09:29:00.620Z,90.48
2018-02-10T09:30:00.607Z,90.2
2018-02-10T09:31:00.593Z,90.1
2018-02-10T09:32:00.586Z,90.29
2018-02-10T09:33:00.565Z,90.39
2018-02-10T09:34:00.551Z,89.72
2018-02-10T09:35:00.535Z,90.1
2018-02-10T09:36:00.523Z,90.01
2018-02-10T09:37:00.255Z,90.1
2018-02-10T09:38:00.498Z,89.91
2018-02-10T09:39:00.480Z,89.67
2018-02-10T09:40:00.466Z,89.39
2018-02-10T09:41:00.452Z,89.58
2018-02-10T09:42:00.443Z,89.29
2018-02-10T09:43:00.420Z,89.58
2018-02-10T09:44:00.412Z,89.11
2018-02-10T09:45:00.420Z,88.82
2018-02-10T09:46:00.128Z,89.2
2018-02-10T09:47:00.376Z,88.82
2018-02-10T09:48:00.352Z,88.44
2018-02-10T09:49:00.088Z,88.63
2018-02-10T09:50:00.330Z,88.63
2018-02-10T09:51:00.320Z,88.73
2018-02-10T09:52:00.299Z,88.44
2018-02-10T09:53:00.281Z,88.63
2018-02-10T09:54:00.266Z,88.63
2018-02-10T09:55:00.001Z,88.63
2018-02-10T09:56:00.245Z,88.73
2018-02-10T09:57:00.225Z,88.63
2018-02-10T09:58:00.217Z,88.44
2018-02-10T09:59:00.200Z,88.25
2018-02-10T10:00:00.254Z,88.44
2018-02-10T10:01:00.172Z,88.54
2018-02-10T10:02:00.159Z,88.73
2018-02-10T10:03:00.156Z,88.54
2018-02-10T10:03:59.878Z,88.73
2018-02-10T10:04:59.871Z,88.92
2018-02-10T10:06:00.117Z,88.82
2018-02-10T10:07:00.104Z,88.35
2018-02-10T10:08:00.082Z,88.06
2018-02-10T10:08:59.809Z,87.87
2018-02-10T10:09:59.795Z,87.87
2018-02-10T10:10:59.782Z,88.2
2018-02-10T10:12:00.030Z,88.01
2018-02-10T10:13:00.024Z,87.54
2018-02-10T10:13:59.742Z,88.01
2018-02-10T10:14:59.978Z,87.82
2018-02-10T10:15:59.716Z,87.45
2018-02-10T10:17:00.202Z,87.35
2018-02-10T10:17:59.942Z,87.35
2018-02-10T10:18:59.933Z,86.68
2018-02-10T10:19:59.911Z,87.35
2018-02-10T10:20:59.649Z,87.63
2018-02-10T10:21:59.885Z,87.73
2018-02-10T10:22:59.871Z,86.97
2018-02-10T10:23:59.860Z,87.35
2018-02-10T10:24:59.853Z,87.35
2018-02-10T10:25:59.833Z,87.16
2018-02-10T10:26:59.567Z,87.06
2018-02-10T10:27:59.807Z,86.78
2018-02-10T10:28:59.794Z,86.3
2018-02-10T10:29:59.778Z,85.74
2018-02-10T10:30:59.767Z,85.93
2018-02-10T10:31:59.500Z,85.93
2018-02-10T10:32:59.739Z,85.83
2018-02-10T10:33:59.730Z,86.02
2018-02-10T10:34:59.715Z,86.11
2018-02-10T10:35:59.708Z,86.21
2018-02-10T10:36:59.687Z,86.02
2018-02-10T10:37:59.422Z,85.83
2018-02-10T10:38:59.721Z,85.45
2018-02-10T10:39:59.398Z,85.68
2018-02-10T10:40:59.641Z,85.49
2018-02-10T10:41:59.646Z,85.21
2018-02-10T10:42:59.863Z,85.02
2018-02-10T10:43:59.347Z,85.59
2018-02-10T10:44:59.595Z,85.11
2018-02-10T10:45:59.603Z,85.02
2018-02-10T10:46:59.314Z,85.02
2018-02-10T10:47:59.546Z,84.36
2018-02-10T10:48:59.536Z,84.64
2018-02-10T10:49:59.524Z,84.36
2018-02-10T10:50:59.513Z,84.36
2018-02-10T10:51:59.505Z,84.55
2018-02-10T10:52:59.490Z,84.64
2018-02-10T10:53:59.476Z,83.88
2018-02-10T10:54:59.463Z,83.97
2018-02-10T10:55:59.197Z,83.92
2018-02-10T10:56:59.492Z,83.97
2018-02-10T10:57:59.426Z,83.78
2018-02-10T10:58:59.411Z,83.78
2018-02-10T10:59:59.403Z,83.78
2018-02-10T11:00:59.136Z,83.69
2018-02-10T11:01:59.380Z,83.5
2018-02-10T11:02:59.362Z,83.78
2018-02-10T11:03:59.349Z,83.88
2018-02-10T11:04:59.339Z,84.17
2018-02-10T11:05:59.073Z,83.31
2018-02-10T11:06:59.318Z,83.88
2018-02-10T11:07:59.300Z,83.59
2018-02-10T11:08:59.289Z,83.88
2018-02-10T11:09:59.274Z,83.69
2018-02-10T11:10:59.267Z,83.97
2018-02-10T11:11:59.254Z,83.69
2018-02-10T11:12:59.238Z,83.22
2018-02-10T11:13:59.475Z,83.59
2018-02-10T11:14:58.964Z,83.88
2018-02-10T11:15:59.201Z,83.97
2018-02-10T11:16:58.942Z,84.17
2018-02-10T11:17:59.183Z,83.97
2018-02-10T11:18:59.166Z,83.78
2018-02-10T11:19:59.151Z,83.69
2018-02-10T11:20:59.141Z,84.45
2018-02-10T11:21:59.131Z,84.26
2018-02-10T11:22:59.115Z,84.45
2018-02-10T11:23:59.099Z,84.45
2018-02-10T11:24:58.836Z,84.64
2018-02-10T11:25:59.079Z,84.45
2018-02-10T11:26:59.072Z,84.64
2018-02-10T11:27:59.050Z,84.64
2018-02-10T11:28:59.044Z,84.45
2018-02-10T11:29:59.036Z,84.07
2018-02-10T11:30:59.012Z,84.26
2018-02-10T11:31:58.748Z,84.26
2018-02-10T11:32:58.990Z,84.74
2018-02-10T11:33:58.978Z,84.36
2018-02-10T11:34:58.965Z,84.64
2018-02-10T11:35:58.950Z,84.36
2018-02-10T11:36:58.937Z,84.17
2018-02-10T11:37:58.927Z,84.26
2018-02-10T11:38:58.911Z,84.17
2018-02-10T11:39:58.942Z,84.17
2018-02-10T11:40:58.636Z,83.78
2018-02-10T11:41:58.880Z,84.36
2018-02-10T11:42:58.872Z,84.01
2018-02-10T11:43:58.599Z,83.36
2018-02-10T11:44:58.838Z,83.07
2018-02-10T11:45:58.830Z,83.16
2018-02-10T11:46:58.820Z,82.97
2018-02-10T11:47:58.806Z,83.26
2018-02-10T11:48:58.535Z,83.26
2018-02-10T11:49:58.522Z,83.16
2018-02-10T11:50:58.763Z,83.07
2018-02-10T11:51:58.756Z,82.88
2018-02-10T11:52:58.741Z,83.16
2018-02-10T11:53:58.728Z,83.07
2018-02-10T11:54:58.715Z,83.45
2018-02-10T11:55:58.719Z,83.07
2018-02-10T11:56:58.788Z,83.26
2018-02-10T11:57:58.686Z,82.78
2018-02-10T11:58:58.664Z,82.88
2018-02-10T11:59:58.667Z,82.4
2018-02-10T12:00:58.388Z,82.69
2018-02-10T12:01:58.385Z,82.59
2018-02-10T12:02:58.617Z,82.03
2018-02-10T12:03:58.608Z,82.4
2018-02-10T12:04:58.341Z,82.12
2018-02-10T12:05:58.581Z,82.12
2018-02-10T12:06:58.570Z,82.21
2018-02-10T12:07:58.614Z,82.59
2018-02-10T12:08:58.548Z,82.97
2018-02-10T12:09:58.535Z,82.59
2018-02-10T12:10:58.620Z,82.59
2018-02-10T12:11:58.511Z,82.5
2018-02-10T12:12:58.498Z,83.07
2018-02-10T12:13:58.232Z,82.59
2018-02-10T12:14:58.474Z,83.45
2018-02-10T12:15:58.473Z,83.16
2018-02-10T12:16:58.463Z,83.16
2018-02-10T12:17:58.185Z,83.26
2018-02-10T12:18:58.435Z,82.97
2018-02-10T12:19:58.413Z,82.88
2018-02-10T12:20:58.403Z,83.16
2018-02-10T12:21:58.392Z,83.12
2018-02-10T12:22:58.382Z,83.12
2018-02-10T12:23:58.365Z,83.36
2018-02-10T12:24:58.356Z,82.97
2018-02-10T12:25:58.342Z,83.16
2018-02-10T12:26:58.330Z,83.26
2018-02-10T12:27:58.315Z,83.31
2018-02-10T12:28:58.303Z,83.03
2018-02-10T12:29:58.300Z,83.59
2018-02-10T12:30:58.029Z,83.88
2018-02-10T12:31:58.276Z,84.17
2018-02-10T12:32:58.275Z,83.97
2018-02-10T12:33:57.990Z,83.97
2018-02-10T12:34:57.987Z,84.21
2018-02-10T12:35:58.224Z,84.21
2018-02-10T12:36:58.209Z,84.01
2018-02-10T12:37:58.195Z,83.26
2018-02-10T12:38:57.934Z,84.01
2018-02-10T12:39:58.176Z,83.83
2018-02-10T12:40:58.162Z,83.92
2018-02-10T12:41:58.145Z,83.64
2018-02-10T12:42:58.137Z,83.16
2018-02-10T12:43:57.877Z,83.26
2018-02-10T12:44:58.109Z,83.16
2018-02-10T12:45:58.116Z,82.97
2018-02-10T12:46:57.844Z,82.4
2018-02-10T12:47:58.075Z,82.5
2018-02-10T12:48:58.067Z,83.07
2018-02-10T12:49:58.056Z,82.59
2018-02-10T12:50:58.040Z,82.59
2018-02-10T12:51:58.030Z,82.21
2018-02-10T12:52:58.015Z,82.12
2018-02-10T12:53:58.006Z,82.31